Terminal Aerodrome Forecast
Issued by NWS Cleveland, OH

Home | Current Version | Previous Version | Text Only | Print | Product List | Glossary Off
Versions: 1 2 3 4 5 6 7 8 9 10 11 12 13 14 15 16 17 18 19

812
FTUS41 KCLE 250259 AAA
TAFTOL
TAF AMD
KTOL 250259Z 2503/2524 23006KT P6SM SCT025
     FM250900 23006KT 3SM BR SCT020
     FM251400 23010KT P6SM BKN020
     FM251600 23010KT P6SM BKN040
     FM252000 23010KT 3SM TSRA OVC025CB
     FM252200 27008KT P6SM SCT025 BKN080=

USA.gov is the U.S. government's official web portal to all federal, state and local government web resources and services.